createdAt,value
2023-05-19T00:01:00.482Z,95.04
2023-05-19T00:03:27.329Z,95.48
2023-05-19T00:05:54.081Z,95.99
2023-05-19T00:08:23.452Z,97.10
2023-05-19T00:10:50.054Z,96.74
2023-05-19T00:13:16.745Z,97.38
2023-05-19T00:20:14.183Z,96.55
2023-05-19T00:22:40.690Z,96.66
2023-05-19T00:25:07.437Z,97.21
2023-05-19T00:27:34.468Z,97.79
2023-05-19T00:30:00.875Z,98.20
2023-05-19T00:32:27.310Z,98.67
2023-05-19T00:34:54.023Z,98.09
2023-05-19T00:37:20.555Z,97.99
2023-05-19T00:39:47.026Z,98.30
2023-05-19T00:42:14.176Z,99.10
2023-05-19T00:44:41.719Z,98.41
2023-05-19T00:47:08.786Z,98.67
2023-05-19T00:49:36.027Z,98.65
2023-05-19T00:52:02.841Z,98.64
2023-05-19T00:54:29.730Z,98.90
2023-05-19T00:56:58.285Z,98.84
2023-05-19T00:59:25.006Z,99.15
2023-05-19T01:01:51.575Z,98.73
2023-05-19T01:04:21.832Z,98.88
2023-05-19T01:06:54.970Z,99.21
2023-05-19T01:09:22.671Z,99.00
2023-05-19T01:11:50.370Z,99.00
2023-05-19T01:14:18.128Z,99.60
2023-05-19T01:16:54.495Z,99.82
2023-05-19T01:19:36.878Z,99.68
2023-05-19T01:22:37.038Z,99.86
2023-05-19T01:25:30.803Z,100.00
2023-05-19T01:28:30.364Z,100.00
2023-05-19T01:30:59.643Z,100.00
2023-05-19T01:33:28.498Z,100.00
2023-05-19T01:35:56.211Z,100.00
2023-05-19T01:38:24.815Z,100.00
2023-05-19T01:40:54.180Z,100.00
2023-05-19T01:43:23.946Z,100.00
2023-05-19T01:45:51.353Z,100.00
2023-05-19T01:48:18.671Z,100.00
2023-05-19T01:50:45.937Z,100.00
2023-05-19T01:53:12.577Z,100.00
2023-05-19T01:55:48.123Z,100.00
2023-05-19T01:58:31.382Z,100.00
2023-05-19T02:01:00.793Z,100.00
2023-05-19T02:04:01.331Z,100.00
2023-05-19T02:06:41.622Z,100.00
2023-05-19T02:09:18.573Z,100.00
2023-05-19T02:11:55.929Z,100.00
2023-05-19T02:14:32.870Z,100.00
2023-05-19T02:17:00.676Z,100.00
2023-05-19T02:19:32.365Z,100.00
2023-05-19T02:21:59.210Z,100.00
2023-05-19T02:24:26.017Z,100.00
2023-05-19T02:26:53.823Z,100.00
2023-05-19T02:29:21.076Z,100.00
2023-05-19T02:31:47.964Z,100.00
2023-05-19T02:34:14.865Z,100.00
2023-05-19T02:36:45.324Z,100.00
2023-05-19T02:39:12.240Z,100.00
2023-05-19T02:41:39.352Z,100.00
2023-05-19T02:44:05.827Z,100.00
2023-05-19T02:46:32.557Z,100.00
2023-05-19T02:48:59.530Z,100.00
2023-05-19T02:51:25.965Z,100.00
2023-05-19T02:53:52.463Z,100.00
2023-05-19T02:56:18.890Z,100.00
2023-05-19T02:58:45.351Z,100.00
2023-05-19T03:01:12.114Z,100.00
2023-05-19T03:03:38.617Z,100.00
2023-05-19T03:06:08.656Z,100.00
2023-05-19T03:08:36.118Z,100.00
2023-05-19T03:11:03.551Z,100.00
2023-05-19T03:13:30.019Z,100.00
2023-05-19T03:15:58.706Z,100.00
2023-05-19T03:18:26.541Z,100.00
2023-05-19T03:20:54.050Z,100.00
2023-05-19T03:23:21.652Z,100.00
2023-05-19T03:25:48.312Z,100.00
2023-05-19T03:28:14.793Z,100.00
2023-05-19T03:30:41.271Z,100.00
2023-05-19T03:33:07.881Z,100.00
2023-05-19T03:35:34.396Z,100.00
2023-05-19T03:38:00.903Z,100.00
2023-05-19T03:40:27.810Z,100.00
2023-05-19T03:42:57.178Z,100.00
2023-05-19T03:45:23.745Z,100.00
2023-05-19T03:47:50.199Z,100.00
2023-05-19T03:50:16.693Z,100.00
2023-05-19T03:52:45.464Z,100.00
2023-05-19T03:55:14.744Z,100.00
2023-05-19T03:57:41.546Z,100.00
2023-05-19T04:00:09.130Z,100.00
2023-05-19T04:02:35.726Z,100.00
2023-05-19T04:05:04.855Z,100.00
2023-05-19T04:07:31.719Z,100.00
2023-05-19T04:09:58.256Z,100.00
2023-05-19T04:12:24.705Z,100.00
2023-05-19T04:14:51.173Z,100.00
2023-05-19T04:17:17.656Z,100.00
2023-05-19T04:19:44.040Z,100.00
2023-05-19T04:22:10.490Z,100.00
2023-05-19T04:24:36.956Z,100.00
2023-05-19T04:27:04.774Z,100.00
2023-05-19T04:29:32.594Z,99.11
2023-05-19T04:31:59.044Z,94.86
2023-05-19T04:34:25.583Z,90.76
2023-05-19T04:36:53.446Z,86.61
2023-05-19T04:39:21.421Z,83.89
2023-05-19T04:41:48.274Z,81.99
2023-05-19T04:44:18.189Z,83.18
2023-05-19T04:46:45.306Z,86.54
2023-05-19T04:49:14.850Z,85.61
2023-05-19T04:51:42.334Z,84.23
2023-05-19T04:54:09.971Z,80.70
2023-05-19T04:56:36.717Z,77.75
2023-05-19T04:59:03.250Z,75.14
2023-05-19T05:01:31.437Z,73.56
2023-05-19T05:03:59.124Z,71.23
2023-05-19T05:06:26.446Z,69.38
2023-05-19T05:08:53.060Z,68.81
2023-05-19T05:11:19.804Z,69.43
2023-05-19T05:13:46.515Z,71.64
2023-05-19T05:16:13.931Z,72.38
2023-05-19T05:18:43.441Z,75.00
2023-05-19T05:21:11.470Z,75.13
2023-05-19T05:23:38.203Z,73.33
2023-05-19T05:26:11.067Z,70.34
2023-05-19T05:28:37.518Z,70.37
2023-05-19T05:31:04.008Z,68.33
2023-05-19T05:33:30.584Z,67.92
2023-05-19T05:35:57.055Z,68.25
2023-05-19T05:38:24.105Z,67.39
2023-05-19T05:40:50.636Z,65.07
2023-05-19T05:43:17.085Z,68.60
2023-05-19T05:45:43.524Z,71.30
2023-05-19T05:48:10.435Z,69.64
2023-05-19T05:50:37.288Z,67.48
2023-05-19T05:53:06.468Z,64.71
2023-05-19T05:55:33.510Z,64.48
2023-05-19T05:58:02.042Z,63.24
2023-05-19T06:00:28.873Z,61.85
2023-05-19T06:02:55.371Z,61.60
2023-05-19T06:05:22.062Z,60.38
2023-05-19T06:07:48.635Z,62.93
2023-05-19T06:10:15.049Z,63.42
2023-05-19T06:12:43.195Z,65.13
2023-05-19T06:15:10.484Z,62.49
2023-05-19T06:17:36.988Z,58.41
2023-05-19T06:20:05.890Z,59.40
2023-05-19T06:22:32.515Z,61.20
2023-05-19T06:24:59.034Z,59.15
2023-05-19T06:27:25.579Z,58.40
2023-05-19T06:29:52.544Z,59.44
2023-05-19T06:32:19.031Z,60.80
2023-05-19T06:34:45.645Z,59.28
2023-05-19T06:37:14.925Z,57.58
2023-05-19T06:39:41.314Z,58.08
2023-05-19T06:42:07.748Z,56.57
2023-05-19T06:44:34.174Z,58.20
2023-05-19T06:47:00.668Z,56.47
2023-05-19T06:49:29.353Z,57.03
2023-05-19T06:51:55.792Z,58.60
2023-05-19T06:54:22.218Z,56.44
2023-05-19T06:56:48.883Z,56.47
2023-05-19T06:59:16.169Z,54.62
2023-05-19T07:01:42.908Z,57.63
2023-05-19T07:04:09.582Z,54.96
2023-05-19T07:06:36.369Z,55.39
2023-05-19T07:09:05.207Z,56.17
2023-05-19T07:11:32.101Z,55.16
2023-05-19T07:13:58.506Z,56.94
2023-05-19T07:16:25.235Z,56.09
2023-05-19T07:18:51.847Z,57.97
2023-05-19T07:21:18.405Z,58.54
2023-05-19T07:23:44.948Z,58.16
2023-05-19T07:26:11.671Z,59.82
2023-05-19T07:28:40.793Z,59.11
2023-05-19T07:31:08.533Z,57.64
2023-05-19T07:33:35.005Z,55.73
2023-05-19T07:36:01.446Z,55.98
2023-05-19T07:38:28.813Z,56.34
2023-05-19T07:40:55.242Z,53.92
2023-05-19T07:43:21.808Z,53.15
2023-05-19T07:45:48.589Z,53.34
2023-05-19T07:48:15.204Z,53.31
2023-05-19T07:50:41.986Z,52.77
2023-05-19T07:53:08.398Z,56.32
2023-05-19T07:55:34.986Z,54.96
2023-05-19T07:58:01.671Z,54.73
2023-05-19T08:00:28.357Z,54.36
2023-05-19T08:02:56.935Z,51.82
2023-05-19T08:05:23.765Z,51.92
2023-05-19T08:07:50.447Z,48.49
2023-05-19T08:10:17.006Z,49.50
2023-05-19T08:12:44.145Z,50.24
2023-05-19T08:15:11.794Z,49.14
2023-05-19T08:17:38.352Z,48.84
2023-05-19T08:20:08.641Z,50.89
2023-05-19T08:22:35.171Z,47.00
2023-05-19T08:25:01.626Z,49.57
2023-05-19T08:27:28.073Z,51.06
2023-05-19T08:29:55.321Z,49.06
2023-05-19T08:32:22.120Z,49.33
2023-05-19T08:34:48.835Z,49.58
2023-05-19T08:37:15.536Z,52.93
2023-05-19T08:39:42.275Z,49.12
2023-05-19T08:42:10.017Z,51.41
2023-05-19T08:44:37.864Z,49.53
2023-05-19T08:47:12.815Z,48.21
2023-05-19T08:49:51.961Z,47.81
2023-05-19T08:52:30.367Z,47.59
2023-05-19T08:55:13.070Z,47.28
2023-05-19T08:57:40.741Z,48.96
2023-05-19T09:00:14.249Z,47.64
2023-05-19T09:02:50.584Z,48.38
2023-05-19T09:05:28.353Z,45.49
2023-05-19T09:07:55.056Z,46.30
2023-05-19T09:10:21.887Z,47.00
2023-05-19T09:12:49.763Z,48.38
2023-05-19T09:15:19.007Z,47.78
2023-05-19T09:17:47.957Z,47.09
2023-05-19T09:20:16.842Z,48.34
2023-05-19T09:22:47.674Z,49.45
2023-05-19T09:25:22.782Z,48.17
2023-05-19T09:27:50.490Z,51.42
2023-05-19T09:30:17.646Z,49.61
2023-05-19T09:32:44.768Z,46.63
2023-05-19T09:35:13.070Z,46.92
2023-05-19T09:37:41.172Z,46.41
2023-05-19T09:40:13.818Z,47.65
2023-05-19T09:42:41.877Z,50.33
2023-05-19T09:45:09.367Z,46.27
2023-05-19T09:47:40.241Z,47.00
2023-05-19T09:50:11.937Z,48.53
2023-05-19T09:52:39.805Z,44.74
2023-05-19T09:55:09.685Z,45.78
2023-05-19T09:57:37.656Z,44.81
2023-05-19T10:00:12.402Z,46.46
2023-05-19T10:02:42.987Z,46.41
2023-05-19T10:05:20.475Z,45.35
2023-05-19T10:07:49.855Z,45.07
2023-05-19T10:10:16.344Z,47.63
2023-05-19T10:12:43.446Z,46.55
2023-05-19T10:15:11.769Z,47.90
2023-05-19T10:17:40.542Z,47.22
2023-05-19T10:20:09.357Z,46.27
2023-05-19T10:22:36.194Z,47.76
2023-05-19T10:25:02.698Z,46.44
2023-05-19T10:27:30.577Z,46.70
2023-05-19T10:30:00.753Z,47.28
2023-05-19T10:32:31.262Z,47.17
2023-05-19T10:35:13.715Z,49.33
2023-05-19T10:37:45.077Z,48.90
2023-05-19T10:40:33.639Z,44.40
2023-05-19T10:43:25.208Z,46.56
2023-05-19T10:45:53.675Z,46.59
2023-05-19T10:48:24.717Z,48.89
2023-05-19T10:50:55.271Z,44.97
2023-05-19T10:53:22.853Z,46.09
2023-05-19T10:55:59.292Z,45.27
2023-05-19T10:58:44.203Z,44.84
2023-05-19T11:01:16.556Z,48.08
2023-05-19T11:03:53.794Z,48.37
2023-05-19T11:06:34.170Z,47.56
2023-05-19T11:09:13.777Z,46.70
2023-05-19T11:11:48.525Z,45.94
2023-05-19T11:14:17.824Z,45.64
2023-05-19T11:16:47.522Z,44.87
2023-05-19T11:19:38.004Z,46.33
2023-05-19T11:22:09.992Z,45.18
2023-05-19T11:24:47.940Z,43.14
2023-05-19T11:27:27.345Z,44.41
2023-05-19T11:30:02.381Z,42.19
2023-05-19T11:32:30.818Z,41.26
2023-05-19T11:34:58.319Z,44.82
2023-05-19T11:37:25.006Z,42.49
2023-05-19T11:39:52.847Z,44.59
2023-05-19T11:42:19.855Z,41.05
2023-05-19T11:44:46.852Z,43.62
2023-05-19T11:47:14.670Z,42.91
2023-05-19T11:49:45.812Z,39.36
2023-05-19T11:52:12.641Z,43.41
2023-05-19T11:54:42.032Z,42.22
2023-05-19T11:57:10.693Z,41.45
2023-05-19T11:59:39.152Z,39.85
2023-05-19T12:02:20.153Z,39.64
2023-05-19T12:04:49.940Z,40.76
2023-05-19T12:07:18.539Z,43.11
2023-05-19T12:09:46.721Z,39.57
2023-05-19T12:12:17.118Z,42.72
2023-05-19T12:14:44.756Z,45.04
2023-05-19T12:17:19.687Z,46.91
2023-05-19T12:19:48.337Z,46.70
2023-05-19T12:22:16.616Z,46.78
2023-05-19T12:24:44.580Z,48.36
2023-05-19T12:27:13.591Z,47.36
2023-05-19T12:29:40.563Z,43.46
2023-05-19T12:32:08.277Z,44.80
2023-05-19T12:34:38.892Z,48.39
2023-05-19T12:37:06.338Z,44.73
2023-05-19T12:39:33.720Z,46.73
2023-05-19T12:42:18.029Z,45.67
2023-05-19T12:44:46.968Z,47.58
2023-05-19T12:47:17.834Z,45.46
2023-05-19T12:49:59.948Z,45.35
2023-05-19T12:52:28.948Z,45.70
2023-05-19T12:55:07.349Z,45.29
2023-05-19T12:57:39.125Z,45.18
2023-05-19T13:00:09.859Z,46.36
2023-05-19T13:02:55.767Z,43.33
2023-05-19T13:05:22.818Z,44.80
2023-05-19T13:07:59.144Z,45.72
2023-05-19T13:10:27.665Z,43.11
2023-05-19T13:12:59.015Z,42.70
2023-05-19T13:15:26.866Z,45.37
2023-05-19T13:17:54.409Z,41.69
2023-05-19T13:20:21.967Z,45.94
2023-05-19T13:22:49.310Z,43.35
2023-05-19T13:25:16.681Z,41.54
2023-05-19T13:27:45.844Z,45.05
2023-05-19T13:30:12.731Z,43.49
2023-05-19T13:32:39.229Z,45.13
2023-05-19T13:35:06.598Z,42.82
2023-05-19T13:37:33.502Z,44.08
2023-05-19T13:40:00.483Z,42.79
2023-05-19T13:42:27.175Z,44.57
2023-05-19T13:44:56.723Z,45.67
2023-05-19T13:47:24.354Z,45.44
2023-05-19T13:49:51.606Z,45.30
2023-05-19T13:52:18.741Z,44.05
2023-05-19T13:54:45.197Z,44.67
2023-05-19T13:57:11.942Z,42.45
2023-05-19T13:59:48.913Z,43.64
2023-05-19T14:02:19.731Z,43.34
2023-05-19T14:04:46.858Z,43.99
2023-05-19T14:07:13.488Z,44.35
2023-05-19T14:09:39.901Z,43.02
2023-05-19T14:12:07.404Z,41.85
2023-05-19T14:14:33.876Z,41.94
2023-05-19T14:17:00.447Z,46.03
2023-05-19T14:19:30.148Z,44.59
2023-05-19T14:21:57.449Z,44.78
2023-05-19T14:24:24.071Z,48.54
2023-05-19T14:26:50.700Z,41.23
2023-05-19T14:29:17.282Z,44.11
2023-05-19T14:31:43.774Z,43.59
2023-05-19T14:34:10.538Z,40.38
2023-05-19T14:36:36.961Z,39.73
2023-05-19T14:39:03.526Z,40.94
2023-05-19T14:41:29.980Z,40.92
2023-05-19T14:43:56.558Z,40.95
2023-05-19T14:46:23.186Z,41.65
2023-05-19T14:48:49.864Z,40.54
2023-05-19T14:51:16.285Z,43.73
2023-05-19T14:53:42.681Z,42.04
2023-05-19T14:56:09.136Z,43.13
2023-05-19T14:58:35.554Z,43.90
2023-05-19T15:01:01.971Z,41.80
2023-05-19T15:03:28.468Z,43.82
2023-05-19T15:05:54.958Z,40.96
2023-05-19T15:08:21.378Z,43.46
2023-05-19T15:10:51.246Z,41.80
2023-05-19T15:13:18.922Z,42.05
2023-05-19T15:15:45.939Z,40.54
2023-05-19T15:18:13.309Z,38.43
2023-05-19T15:20:39.918Z,40.50
2023-05-19T15:23:06.389Z,39.54
2023-05-19T15:25:32.960Z,42.36
2023-05-19T15:27:59.653Z,40.35
2023-05-19T15:30:26.048Z,40.16
2023-05-19T15:32:52.660Z,42.31
2023-05-19T15:35:19.067Z,44.08
2023-05-19T15:37:45.636Z,43.04
2023-05-19T15:40:12.517Z,41.51
2023-05-19T15:42:38.894Z,39.00
2023-05-19T15:45:07.875Z,39.84
2023-05-19T15:47:34.561Z,43.69
2023-05-19T15:50:01.032Z,40.92
2023-05-19T15:52:27.672Z,40.76
2023-05-19T15:54:55.172Z,39.67
2023-05-19T15:57:21.832Z,40.80
2023-05-19T15:59:48.225Z,41.21
2023-05-19T16:02:14.688Z,40.12
2023-05-19T16:04:41.153Z,39.70
2023-05-19T16:07:07.647Z,38.94
2023-05-19T16:09:34.099Z,41.34
2023-05-19T16:12:00.707Z,40.88
2023-05-19T16:14:30.918Z,39.83
2023-05-19T16:16:57.380Z,40.84
2023-05-19T16:19:24.016Z,42.01
2023-05-19T16:21:50.585Z,40.29
2023-05-19T16:24:17.030Z,39.44
2023-05-19T16:26:43.446Z,42.41
2023-05-19T16:29:09.852Z,44.02
2023-05-19T16:31:36.333Z,42.99
2023-05-19T16:34:02.955Z,40.38
2023-05-19T16:36:29.612Z,41.24
2023-05-19T16:38:56.087Z,41.65
2023-05-19T16:41:22.633Z,43.19
2023-05-19T16:43:49.063Z,43.62
2023-05-19T16:46:15.519Z,42.51
2023-05-19T16:48:42.022Z,45.17
2023-05-19T16:51:08.467Z,44.66
2023-05-19T16:53:34.934Z,43.92
2023-05-19T16:56:01.420Z,42.40
2023-05-19T16:58:28.901Z,42.37
2023-05-19T17:00:57.716Z,40.82
2023-05-19T17:03:24.515Z,42.59
2023-05-19T17:05:51.240Z,41.26
2023-05-19T17:08:17.862Z,43.30
2023-05-19T17:10:44.854Z,43.74
2023-05-19T17:13:11.751Z,44.53
2023-05-19T17:15:38.235Z,44.42
2023-05-19T17:18:05.759Z,43.60
2023-05-19T17:20:32.446Z,43.11
2023-05-19T17:22:59.036Z,43.86
2023-05-19T17:25:25.822Z,44.48
2023-05-19T17:27:52.375Z,42.46
2023-05-19T17:30:18.851Z,43.09
2023-05-19T17:32:45.655Z,42.25
2023-05-19T17:35:12.172Z,43.65
2023-05-19T17:37:38.568Z,43.80
2023-05-19T17:40:05.572Z,45.12
2023-05-19T17:42:32.154Z,46.52
2023-05-19T17:44:58.652Z,46.00
2023-05-19T17:47:25.428Z,46.13
2023-05-19T17:49:53.055Z,46.13
2023-05-19T17:52:20.525Z,45.91
2023-05-19T17:54:47.778Z,46.74
2023-05-19T17:57:16.938Z,46.94
2023-05-19T17:59:43.706Z,46.30
2023-05-19T18:02:11.876Z,45.29
2023-05-19T18:04:38.594Z,45.43
2023-05-19T18:07:06.864Z,47.09
2023-05-19T18:09:40.581Z,45.81
2023-05-19T18:12:07.171Z,45.60
2023-05-19T18:14:33.756Z,47.29
2023-05-19T18:17:00.508Z,47.38
2023-05-19T18:19:27.023Z,47.84
2023-05-19T18:21:53.556Z,48.07
2023-05-19T18:24:19.964Z,47.93
2023-05-19T18:26:46.824Z,47.85
2023-05-19T18:29:14.568Z,48.10
2023-05-19T18:31:41.625Z,49.28
2023-05-19T18:34:11.518Z,49.07
2023-05-19T18:36:37.971Z,49.54
2023-05-19T18:39:07.329Z,50.29
2023-05-19T18:41:33.857Z,50.24
2023-05-19T18:44:00.356Z,50.81
2023-05-19T18:46:26.847Z,52.33
2023-05-19T18:48:53.321Z,52.84
2023-05-19T18:51:21.313Z,52.87
2023-05-19T18:53:49.992Z,53.05
2023-05-19T18:56:23.537Z,52.48
2023-05-19T18:58:50.181Z,53.23
2023-05-19T19:01:16.730Z,53.68
2023-05-19T19:03:43.692Z,53.70
2023-05-19T19:06:10.257Z,54.96
2023-05-19T19:08:36.702Z,55.34
2023-05-19T19:11:03.782Z,55.56
2023-05-19T19:13:30.190Z,55.28
2023-05-19T19:15:56.588Z,55.08
2023-05-19T19:18:23.025Z,55.16
2023-05-19T19:20:49.462Z,55.90
2023-05-19T19:23:16.107Z,55.85
2023-05-19T19:25:42.504Z,55.78
2023-05-19T19:28:09.253Z,55.70
2023-05-19T19:30:35.958Z,56.23
2023-05-19T19:33:03.443Z,56.76
2023-05-19T19:35:31.141Z,57.47
2023-05-19T19:37:58.677Z,57.52
2023-05-19T19:40:25.360Z,57.50
2023-05-19T19:42:51.763Z,58.09
2023-05-19T19:45:18.561Z,57.77
2023-05-19T19:47:45.117Z,57.64
2023-05-19T19:50:11.791Z,57.73
2023-05-19T19:52:38.475Z,57.41
2023-05-19T19:55:05.517Z,57.19
2023-05-19T19:57:34.071Z,57.52
2023-05-19T20:00:07.691Z,58.23
2023-05-19T20:02:36.007Z,58.19
2023-05-19T20:05:02.572Z,59.24
2023-05-19T20:07:29.352Z,58.78
2023-05-19T20:09:58.408Z,58.13
2023-05-19T20:12:25.310Z,57.68
2023-05-19T20:14:55.015Z,57.69
2023-05-19T20:17:21.538Z,57.87
2023-05-19T20:19:48.487Z,58.60
2023-05-19T20:22:15.125Z,61.07
2023-05-19T20:24:41.851Z,64.20
2023-05-19T20:27:09.357Z,66.36
2023-05-19T20:29:36.678Z,67.08
2023-05-19T20:32:03.217Z,69.47
2023-05-19T20:34:29.916Z,71.43
2023-05-19T20:36:56.403Z,72.80
2023-05-19T20:39:22.945Z,72.96
2023-05-19T20:41:49.342Z,74.90
2023-05-19T20:44:16.055Z,75.28
2023-05-19T20:46:42.774Z,75.85
2023-05-19T20:49:09.175Z,76.05
2023-05-19T20:51:35.818Z,76.53
2023-05-19T20:54:02.249Z,76.69
2023-05-19T20:56:28.662Z,76.78
2023-05-19T20:58:55.065Z,77.01
2023-05-19T21:01:21.702Z,77.43
2023-05-19T21:03:48.185Z,77.83
2023-05-19T21:06:14.569Z,78.02
2023-05-19T21:08:41.073Z,78.84
2023-05-19T21:11:07.577Z,78.35
2023-05-19T21:13:33.988Z,78.30
2023-05-19T21:16:00.519Z,77.91
2023-05-19T21:18:27.023Z,78.16
2023-05-19T21:20:53.683Z,78.43
2023-05-19T21:23:20.270Z,78.88
2023-05-19T21:25:46.745Z,78.95
2023-05-19T21:28:13.151Z,79.19
2023-05-19T21:30:39.531Z,79.64
2023-05-19T21:33:05.992Z,79.55
2023-05-19T21:35:32.487Z,79.49
2023-05-19T21:38:02.112Z,79.13
2023-05-19T21:40:35.604Z,78.84
2023-05-19T21:43:02.352Z,78.48
2023-05-19T21:45:29.088Z,78.94
2023-05-19T21:47:55.884Z,79.19
2023-05-19T21:50:22.324Z,78.90
2023-05-19T21:52:48.790Z,79.06
2023-05-19T21:55:15.614Z,78.61
2023-05-19T21:57:42.340Z,78.09
2023-05-19T22:00:12.865Z,77.94
2023-05-19T22:02:40.720Z,77.44
2023-05-19T22:05:07.590Z,77.54
2023-05-19T22:07:34.053Z,77.13
2023-05-19T22:10:00.914Z,76.45
2023-05-19T22:12:27.395Z,77.10
2023-05-19T22:14:53.813Z,77.09
2023-05-19T22:17:20.402Z,77.22
2023-05-19T22:19:47.050Z,76.73
2023-05-19T22:22:14.599Z,76.60
2023-05-19T22:24:41.322Z,77.29
2023-05-19T22:27:08.418Z,77.33
2023-05-19T22:29:35.380Z,77.58
2023-05-19T22:32:01.789Z,77.77
2023-05-19T22:34:28.291Z,77.58
2023-05-19T22:36:54.744Z,77.81
2023-05-19T22:39:21.258Z,77.63
2023-05-19T22:41:47.775Z,77.83
2023-05-19T22:44:16.163Z,78.38
2023-05-19T22:46:44.634Z,78.21
2023-05-19T22:49:11.061Z,78.34
2023-05-19T22:51:37.806Z,78.44
2023-05-19T22:54:04.196Z,78.51
2023-05-19T22:56:30.597Z,78.72
2023-05-19T22:58:57.102Z,78.94
2023-05-19T23:01:23.714Z,78.76
2023-05-19T23:03:50.192Z,79.12
2023-05-19T23:06:16.729Z,79.50
2023-05-19T23:08:46.726Z,79.46
2023-05-19T23:11:13.268Z,79.36
2023-05-19T23:13:39.676Z,79.43
2023-05-19T23:16:07.523Z,79.59
2023-05-19T23:18:34.211Z,79.97
2023-05-19T23:21:00.676Z,80.06
2023-05-19T23:23:28.694Z,80.27
2023-05-19T23:25:55.794Z,80.40
2023-05-19T23:28:22.194Z,80.60
2023-05-19T23:30:48.638Z,80.91
2023-05-19T23:33:15.055Z,80.61
2023-05-19T23:35:41.801Z,80.55
2023-05-19T23:38:08.201Z,80.99
2023-05-19T23:40:34.613Z,80.75
2023-05-19T23:43:01.115Z,80.75
2023-05-19T23:45:27.639Z,80.96
2023-05-19T23:47:54.162Z,81.48
2023-05-19T23:50:20.780Z,81.68
2023-05-19T23:52:48.090Z,81.75
2023-05-19T23:55:15.061Z,81.94
2023-05-19T23:57:42.122Z,81.71
